sensor_id;sensor_type;location;lat;lon;timestamp;P1;durP1;ratioP1;P2;durP2;ratioP2
60819;SDS011;46641;48.904;9.126;2024-03-29T00:00:33;2.10;;;1.50;;
60819;SDS011;46641;48.904;9.126;2024-03-29T00:05:24;1.47;;;1.10;;
60819;SDS011;46641;48.904;9.126;2024-03-29T00:10:14;2.17;;;1.47;;
60819;SDS011;46641;48.904;9.126;2024-03-29T00:15:05;2.27;;;1.23;;
60819;SDS011;46641;48.904;9.126;2024-03-29T00:19:56;1.23;;;1.13;;
60819;SDS011;46641;48.904;9.126;2024-03-29T00:24:47;1.40;;;1.30;;
60819;SDS011;46641;48.904;9.126;2024-03-29T00:29:37;1.67;;;1.58;;
60819;SDS011;46641;48.904;9.126;2024-03-29T00:34:27;1.63;;;1.52;;
60819;SDS011;46641;48.904;9.126;2024-03-29T00:39:17;2.87;;;1.50;;
60819;SDS011;46641;48.904;9.126;2024-03-29T00:44:08;1.83;;;1.20;;
60819;SDS011;46641;48.904;9.126;2024-03-29T00:48:58;1.03;;;1.03;;
60819;SDS011;46641;48.904;9.126;2024-03-29T00:53:48;2.40;;;1.20;;
60819;SDS011;46641;48.904;9.126;2024-03-29T00:58:38;0.87;;;0.87;;
60819;SDS011;46641;48.904;9.126;2024-03-29T01:03:29;1.40;;;1.30;;
60819;SDS011;46641;48.904;9.126;2024-03-29T01:08:21;1.40;;;1.13;;
60819;SDS011;46641;48.904;9.126;2024-03-29T01:13:12;1.20;;;1.10;;
60819;SDS011;46641;48.904;9.126;2024-03-29T01:18:02;1.30;;;1.10;;
60819;SDS011;46641;48.904;9.126;2024-03-29T01:22:54;1.00;;;0.90;;
60819;SDS011;46641;48.904;9.126;2024-03-29T01:27:44;1.23;;;1.13;;
60819;SDS011;46641;48.904;9.126;2024-03-29T01:32:35;1.67;;;1.10;;
60819;SDS011;46641;48.904;9.126;2024-03-29T01:37:25;1.47;;;0.97;;
60819;SDS011;46641;48.904;9.126;2024-03-29T01:42:15;1.53;;;1.30;;
60819;SDS011;46641;48.904;9.126;2024-03-29T01:47:06;1.58;;;1.48;;
60819;SDS011;46641;48.904;9.126;2024-03-29T01:51:56;1.07;;;1.07;;
60819;SDS011;46641;48.904;9.126;2024-03-29T01:56:47;1.37;;;1.10;;
60819;SDS011;46641;48.904;9.126;2024-03-29T02:01:38;1.33;;;1.20;;
60819;SDS011;46641;48.904;9.126;2024-03-29T02:06:30;1.13;;;1.00;;
60819;SDS011;46641;48.904;9.126;2024-03-29T02:11:21;2.73;;;1.40;;
60819;SDS011;46641;48.904;9.126;2024-03-29T02:16:11;2.00;;;1.20;;
60819;SDS011;46641;48.904;9.126;2024-03-29T02:21:02;2.45;;;1.08;;
60819;SDS011;46641;48.904;9.126;2024-03-29T02:25:52;1.03;;;1.00;;
60819;SDS011;46641;48.904;9.126;2024-03-29T02:30:42;2.08;;;1.30;;
60819;SDS011;46641;48.904;9.126;2024-03-29T02:35:33;1.73;;;1.25;;
60819;SDS011;46641;48.904;9.126;2024-03-29T02:40:23;1.90;;;1.10;;
60819;SDS011;46641;48.904;9.126;2024-03-29T02:45:14;1.20;;;1.10;;
60819;SDS011;46641;48.904;9.126;2024-03-29T02:50:05;1.00;;;0.90;;
60819;SDS011;46641;48.904;9.126;2024-03-29T02:54:56;1.63;;;1.40;;
60819;SDS011;46641;48.904;9.126;2024-03-29T02:59:47;0.90;;;0.90;;
60819;SDS011;46641;48.904;9.126;2024-03-29T03:04:37;0.95;;;0.77;;
60819;SDS011;46641;48.904;9.126;2024-03-29T03:09:27;0.93;;;0.93;;
60819;SDS011;46641;48.904;9.126;2024-03-29T03:14:36;1.50;;;1.00;;
60819;SDS011;46641;48.904;9.126;2024-03-29T03:19:26;0.95;;;0.95;;
60819;SDS011;46641;48.904;9.126;2024-03-29T03:24:17;1.57;;;1.30;;
60819;SDS011;46641;48.904;9.126;2024-03-29T03:29:07;3.00;;;2.58;;
60819;SDS011;46641;48.904;9.126;2024-03-29T03:33:59;4.13;;;2.40;;
60819;SDS011;46641;48.904;9.126;2024-03-29T03:38:49;1.38;;;1.23;;
60819;SDS011;46641;48.904;9.126;2024-03-29T03:43:40;1.42;;;0.70;;
60819;SDS011;46641;48.904;9.126;2024-03-29T03:48:30;0.70;;;0.70;;
60819;SDS011;46641;48.904;9.126;2024-03-29T03:53:20;0.88;;;0.82;;
60819;SDS011;46641;48.904;9.126;2024-03-29T03:58:10;1.10;;;0.77;;
60819;SDS011;46641;48.904;9.126;2024-03-29T04:03:01;1.45;;;0.73;;
60819;SDS011;46641;48.904;9.126;2024-03-29T04:07:53;0.80;;;0.80;;
60819;SDS011;46641;48.904;9.126;2024-03-29T04:12:43;0.70;;;0.70;;
60819;SDS011;46641;48.904;9.126;2024-03-29T04:17:34;1.13;;;0.90;;
60819;SDS011;46641;48.904;9.126;2024-03-29T04:22:28;1.00;;;1.00;;
60819;SDS011;46641;48.904;9.126;2024-03-29T04:27:19;0.70;;;0.70;;
60819;SDS011;46641;48.904;9.126;2024-03-29T04:32:09;2.17;;;0.80;;
60819;SDS011;46641;48.904;9.126;2024-03-29T04:36:59;1.20;;;1.10;;
60819;SDS011;46641;48.904;9.126;2024-03-29T04:41:50;0.70;;;0.70;;
60819;SDS011;46641;48.904;9.126;2024-03-29T04:46:40;1.00;;;0.90;;
60819;SDS011;46641;48.904;9.126;2024-03-29T04:51:31;1.00;;;0.80;;
60819;SDS011;46641;48.904;9.126;2024-03-29T04:56:21;0.80;;;0.80;;
60819;SDS011;46641;48.904;9.126;2024-03-29T05:01:11;1.95;;;1.20;;
60819;SDS011;46641;48.904;9.126;2024-03-29T05:06:01;1.48;;;0.93;;
60819;SDS011;46641;48.904;9.126;2024-03-29T05:10:52;1.33;;;1.00;;
60819;SDS011;46641;48.904;9.126;2024-03-29T05:15:42;1.70;;;1.10;;
60819;SDS011;46641;48.904;9.126;2024-03-29T05:20:33;1.50;;;0.90;;
60819;SDS011;46641;48.904;9.126;2024-03-29T05:25:23;1.13;;;0.70;;
60819;SDS011;46641;48.904;9.126;2024-03-29T05:30:13;0.80;;;0.70;;
60819;SDS011;46641;48.904;9.126;2024-03-29T05:35:04;1.50;;;0.87;;
60819;SDS011;46641;48.904;9.126;2024-03-29T05:39:54;0.73;;;0.73;;
60819;SDS011;46641;48.904;9.126;2024-03-29T05:44:54;0.83;;;0.83;;
60819;SDS011;46641;48.904;9.126;2024-03-29T05:49:44;1.60;;;1.00;;
60819;SDS011;46641;48.904;9.126;2024-03-29T05:54:34;1.53;;;1.10;;
60819;SDS011;46641;48.904;9.126;2024-03-29T05:59:25;1.58;;;1.00;;
60819;SDS011;46641;48.904;9.126;2024-03-29T06:04:15;1.20;;;1.10;;
60819;SDS011;46641;48.904;9.126;2024-03-29T06:09:09;1.63;;;1.10;;
60819;SDS011;46641;48.904;9.126;2024-03-29T06:13:59;0.80;;;0.80;;
60819;SDS011;46641;48.904;9.126;2024-03-29T06:18:49;1.17;;;0.90;;
60819;SDS011;46641;48.904;9.126;2024-03-29T06:23:40;1.10;;;1.00;;
60819;SDS011;46641;48.904;9.126;2024-03-29T06:28:30;1.45;;;0.90;;
60819;SDS011;46641;48.904;9.126;2024-03-29T06:33:20;1.95;;;0.77;;
60819;SDS011;46641;48.904;9.126;2024-03-29T06:38:10;0.70;;;0.70;;
60819;SDS011;46641;48.904;9.126;2024-03-29T06:43:01;0.70;;;0.70;;
60819;SDS011;46641;48.904;9.126;2024-03-29T06:47:52;1.57;;;0.90;;
60819;SDS011;46641;48.904;9.126;2024-03-29T06:52:43;1.30;;;1.20;;
60819;SDS011;46641;48.904;9.126;2024-03-29T06:57:33;0.97;;;0.90;;
60819;SDS011;46641;48.904;9.126;2024-03-29T07:02:25;1.20;;;0.97;;
60819;SDS011;46641;48.904;9.126;2024-03-29T07:07:15;1.40;;;1.05;;
60819;SDS011;46641;48.904;9.126;2024-03-29T07:12:06;1.20;;;1.10;;
60819;SDS011;46641;48.904;9.126;2024-03-29T07:16:56;1.00;;;0.83;;
60819;SDS011;46641;48.904;9.126;2024-03-29T07:21:47;0.90;;;0.90;;
60819;SDS011;46641;48.904;9.126;2024-03-29T07:26:37;2.72;;;1.13;;
60819;SDS011;46641;48.904;9.126;2024-03-29T07:31:27;2.00;;;1.83;;
60819;SDS011;46641;48.904;9.126;2024-03-29T07:36:18;1.30;;;1.20;;
60819;SDS011;46641;48.904;9.126;2024-03-29T07:41:08;1.58;;;1.27;;
60819;SDS011;46641;48.904;9.126;2024-03-29T07:45:59;1.53;;;1.20;;
60819;SDS011;46641;48.904;9.126;2024-03-29T07:50:49;2.07;;;1.97;;
60819;SDS011;46641;48.904;9.126;2024-03-29T07:55:40;2.10;;;1.27;;
60819;SDS011;46641;48.904;9.126;2024-03-29T08:00:33;1.30;;;1.20;;
60819;SDS011;46641;48.904;9.126;2024-03-29T08:05:24;2.17;;;1.37;;
60819;SDS011;46641;48.904;9.126;2024-03-29T08:10:14;1.40;;;1.30;;
60819;SDS011;46641;48.904;9.126;2024-03-29T08:15:05;2.20;;;1.80;;
60819;SDS011;46641;48.904;9.126;2024-03-29T08:19:55;3.87;;;1.77;;
60819;SDS011;46641;48.904;9.126;2024-03-29T08:24:46;1.57;;;1.00;;
60819;SDS011;46641;48.904;9.126;2024-03-29T08:29:36;3.50;;;1.80;;
60819;SDS011;46641;48.904;9.126;2024-03-29T08:34:26;0.97;;;0.97;;
60819;SDS011;46641;48.904;9.126;2024-03-29T08:39:20;1.07;;;0.80;;
60819;SDS011;46641;48.904;9.126;2024-03-29T08:44:11;1.10;;;1.00;;
60819;SDS011;46641;48.904;9.126;2024-03-29T08:49:01;2.20;;;2.00;;
60819;SDS011;46641;48.904;9.126;2024-03-29T08:53:51;1.30;;;1.20;;
60819;SDS011;46641;48.904;9.126;2024-03-29T08:58:42;2.60;;;1.67;;
60819;SDS011;46641;48.904;9.126;2024-03-29T09:03:32;1.93;;;1.30;;
60819;SDS011;46641;48.904;9.126;2024-03-29T09:08:23;4.30;;;1.77;;
60819;SDS011;46641;48.904;9.126;2024-03-29T09:13:13;3.30;;;1.93;;
60819;SDS011;46641;48.904;9.126;2024-03-29T09:18:03;1.83;;;1.37;;
60819;SDS011;46641;48.904;9.126;2024-03-29T09:23:00;2.50;;;1.67;;
60819;SDS011;46641;48.904;9.126;2024-03-29T09:27:51;2.03;;;1.50;;
60819;SDS011;46641;48.904;9.126;2024-03-29T09:32:41;2.73;;;1.43;;
60819;SDS011;46641;48.904;9.126;2024-03-29T09:37:31;1.30;;;1.05;;
60819;SDS011;46641;48.904;9.126;2024-03-29T09:42:25;1.43;;;1.33;;
60819;SDS011;46641;48.904;9.126;2024-03-29T09:47:17;3.03;;;1.80;;
60819;SDS011;46641;48.904;9.126;2024-03-29T09:52:08;1.20;;;1.10;;
60819;SDS011;46641;48.904;9.126;2024-03-29T09:56:59;2.77;;;1.37;;
60819;SDS011;46641;48.904;9.126;2024-03-29T10:01:50;5.67;;;2.90;;
60819;SDS011;46641;48.904;9.126;2024-03-29T10:06:44;4.80;;;2.30;;
60819;SDS011;46641;48.904;9.126;2024-03-29T10:11:36;5.33;;;2.60;;
60819;SDS011;46641;48.904;9.126;2024-03-29T10:16:26;3.00;;;2.00;;
60819;SDS011;46641;48.904;9.126;2024-03-29T10:21:24;2.73;;;2.20;;
60819;SDS011;46641;48.904;9.126;2024-03-29T10:26:15;2.57;;;2.37;;
60819;SDS011;46641;48.904;9.126;2024-03-29T10:31:06;4.60;;;3.00;;
60819;SDS011;46641;48.904;9.126;2024-03-29T10:35:57;7.83;;;3.30;;
60819;SDS011;46641;48.904;9.126;2024-03-29T10:40:49;4.67;;;3.27;;
60819;SDS011;46641;48.904;9.126;2024-03-29T10:45:41;4.83;;;3.70;;
60819;SDS011;46641;48.904;9.126;2024-03-29T10:50:32;3.70;;;3.00;;
60819;SDS011;46641;48.904;9.126;2024-03-29T10:55:25;3.10;;;2.80;;
60819;SDS011;46641;48.904;9.126;2024-03-29T11:00:15;5.17;;;2.70;;
60819;SDS011;46641;48.904;9.126;2024-03-29T11:05:12;2.93;;;2.70;;
60819;SDS011;46641;48.904;9.126;2024-03-29T11:10:04;2.93;;;2.60;;
60819;SDS011;46641;48.904;9.126;2024-03-29T11:15:02;2.90;;;2.70;;
60819;SDS011;46641;48.904;9.126;2024-03-29T11:19:55;2.63;;;2.43;;
60819;SDS011;46641;48.904;9.126;2024-03-29T11:24:45;3.00;;;2.33;;
60819;SDS011;46641;48.904;9.126;2024-03-29T11:29:36;2.53;;;1.70;;
60819;SDS011;46641;48.904;9.126;2024-03-29T11:34:31;2.23;;;1.50;;
60819;SDS011;46641;48.904;9.126;2024-03-29T11:39:22;2.10;;;2.00;;
60819;SDS011;46641;48.904;9.126;2024-03-29T11:44:13;3.17;;;1.90;;
60819;SDS011;46641;48.904;9.126;2024-03-29T11:49:03;2.30;;;2.10;;
60819;SDS011;46641;48.904;9.126;2024-03-29T11:53:54;3.20;;;1.87;;
60819;SDS011;46641;48.904;9.126;2024-03-29T11:58:45;3.17;;;1.70;;
60819;SDS011;46641;48.904;9.126;2024-03-29T12:03:39;3.70;;;1.97;;
60819;SDS011;46641;48.904;9.126;2024-03-29T12:08:31;2.93;;;2.67;;
60819;SDS011;46641;48.904;9.126;2024-03-29T12:13:28;2.57;;;2.37;;
60819;SDS011;46641;48.904;9.126;2024-03-29T12:18:20;2.13;;;1.53;;
60819;SDS011;46641;48.904;9.126;2024-03-29T12:23:11;1.97;;;1.87;;
60819;SDS011;46641;48.904;9.126;2024-03-29T12:28:03;2.17;;;1.97;;
60819;SDS011;46641;48.904;9.126;2024-03-29T12:37:51;2.03;;;1.70;;
60819;SDS011;46641;48.904;9.126;2024-03-29T12:42:46;1.93;;;1.73;;
60819;SDS011;46641;48.904;9.126;2024-03-29T12:47:36;2.60;;;2.03;;
60819;SDS011;46641;48.904;9.126;2024-03-29T12:52:27;1.75;;;1.65;;
60819;SDS011;46641;48.904;9.126;2024-03-29T12:57:17;2.28;;;1.60;;
60819;SDS011;46641;48.904;9.126;2024-03-29T13:02:07;1.80;;;1.70;;
60819;SDS011;46641;48.904;9.126;2024-03-29T13:06:57;2.83;;;1.70;;
60819;SDS011;46641;48.904;9.126;2024-03-29T13:11:48;1.90;;;1.80;;
60819;SDS011;46641;48.904;9.126;2024-03-29T13:16:38;3.43;;;2.50;;
60819;SDS011;46641;48.904;9.126;2024-03-29T13:21:29;3.83;;;2.73;;
60819;SDS011;46641;48.904;9.126;2024-03-29T13:26:21;2.37;;;1.70;;
60819;SDS011;46641;48.904;9.126;2024-03-29T13:31:11;1.90;;;1.80;;
60819;SDS011;46641;48.904;9.126;2024-03-29T13:36:01;1.50;;;1.40;;
60819;SDS011;46641;48.904;9.126;2024-03-29T13:40:52;2.30;;;1.33;;
60819;SDS011;46641;48.904;9.126;2024-03-29T13:45:43;1.03;;;1.03;;
60819;SDS011;46641;48.904;9.126;2024-03-29T13:50:33;1.20;;;1.10;;
60819;SDS011;46641;48.904;9.126;2024-03-29T13:55:24;1.70;;;1.10;;
60819;SDS011;46641;48.904;9.126;2024-03-29T14:00:16;0.80;;;0.80;;
60819;SDS011;46641;48.904;9.126;2024-03-29T14:05:09;0.70;;;0.70;;
60819;SDS011;46641;48.904;9.126;2024-03-29T14:09:59;1.48;;;1.17;;
60819;SDS011;46641;48.904;9.126;2024-03-29T14:14:53;1.20;;;1.10;;
60819;SDS011;46641;48.904;9.126;2024-03-29T14:19:44;2.10;;;1.40;;
60819;SDS011;46641;48.904;9.126;2024-03-29T14:24:34;1.53;;;1.30;;
60819;SDS011;46641;48.904;9.126;2024-03-29T14:29:33;1.50;;;1.33;;
60819;SDS011;46641;48.904;9.126;2024-03-29T14:34:24;2.07;;;1.60;;
60819;SDS011;46641;48.904;9.126;2024-03-29T14:39:14;1.40;;;1.30;;
60819;SDS011;46641;48.904;9.126;2024-03-29T14:44:06;1.40;;;1.30;;
60819;SDS011;46641;48.904;9.126;2024-03-29T14:48:59;1.43;;;1.33;;
60819;SDS011;46641;48.904;9.126;2024-03-29T14:53:50;1.47;;;1.00;;
60819;SDS011;46641;48.904;9.126;2024-03-29T14:58:40;1.80;;;1.03;;
60819;SDS011;46641;48.904;9.126;2024-03-29T15:03:30;1.30;;;1.05;;
60819;SDS011;46641;48.904;9.126;2024-03-29T15:08:21;1.00;;;1.00;;
60819;SDS011;46641;48.904;9.126;2024-03-29T15:13:11;1.43;;;1.30;;
60819;SDS011;46641;48.904;9.126;2024-03-29T15:18:01;1.20;;;0.97;;
60819;SDS011;46641;48.904;9.126;2024-03-29T15:22:51;1.55;;;1.00;;
60819;SDS011;46641;48.904;9.126;2024-03-29T15:27:43;1.40;;;1.30;;
60819;SDS011;46641;48.904;9.126;2024-03-29T15:32:52;1.07;;;1.07;;
60819;SDS011;46641;48.904;9.126;2024-03-29T15:37:43;2.10;;;1.00;;
60819;SDS011;46641;48.904;9.126;2024-03-29T15:42:33;1.40;;;1.15;;
60819;SDS011;46641;48.904;9.126;2024-03-29T15:47:25;2.00;;;1.17;;
60819;SDS011;46641;48.904;9.126;2024-03-29T15:52:15;1.30;;;1.20;;
60819;SDS011;46641;48.904;9.126;2024-03-29T15:57:06;1.20;;;1.13;;
60819;SDS011;46641;48.904;9.126;2024-03-29T16:01:56;1.07;;;0.97;;
60819;SDS011;46641;48.904;9.126;2024-03-29T16:06:46;2.10;;;1.07;;
60819;SDS011;46641;48.904;9.126;2024-03-29T16:11:37;1.00;;;1.00;;
60819;SDS011;46641;48.904;9.126;2024-03-29T16:16:28;1.20;;;1.10;;
60819;SDS011;46641;48.904;9.126;2024-03-29T16:21:19;1.20;;;1.10;;
60819;SDS011;46641;48.904;9.126;2024-03-29T16:26:10;1.10;;;1.10;;
60819;SDS011;46641;48.904;9.126;2024-03-29T16:31:01;1.67;;;1.40;;
60819;SDS011;46641;48.904;9.126;2024-03-29T16:35:52;1.33;;;1.23;;
60819;SDS011;46641;48.904;9.126;2024-03-29T16:40:43;1.10;;;1.00;;
60819;SDS011;46641;48.904;9.126;2024-03-29T16:45:34;1.50;;;1.40;;
60819;SDS011;46641;48.904;9.126;2024-03-29T16:50:24;1.90;;;1.70;;
60819;SDS011;46641;48.904;9.126;2024-03-29T16:55:15;2.50;;;2.30;;
60819;SDS011;46641;48.904;9.126;2024-03-29T17:00:06;3.23;;;2.00;;
60819;SDS011;46641;48.904;9.126;2024-03-29T17:04:58;3.80;;;2.97;;
60819;SDS011;46641;48.904;9.126;2024-03-29T17:09:48;2.13;;;2.03;;
60819;SDS011;46641;48.904;9.126;2024-03-29T17:14:38;2.58;;;2.10;;
60819;SDS011;46641;48.904;9.126;2024-03-29T17:19:35;3.03;;;2.60;;
60819;SDS011;46641;48.904;9.126;2024-03-29T17:24:26;3.27;;;2.10;;
60819;SDS011;46641;48.904;9.126;2024-03-29T17:29:16;4.10;;;3.80;;
60819;SDS011;46641;48.904;9.126;2024-03-29T17:34:07;3.60;;;3.10;;
60819;SDS011;46641;48.904;9.126;2024-03-29T17:39:04;4.20;;;3.07;;
60819;SDS011;46641;48.904;9.126;2024-03-29T17:43:55;4.27;;;3.03;;
60819;SDS011;46641;48.904;9.126;2024-03-29T17:48:46;3.33;;;2.67;;
60819;SDS011;46641;48.904;9.126;2024-03-29T17:53:36;2.78;;;2.58;;
60819;SDS011;46641;48.904;9.126;2024-03-29T17:58:26;4.30;;;2.57;;
60819;SDS011;46641;48.904;9.126;2024-03-29T18:03:16;3.00;;;2.77;;
60819;SDS011;46641;48.904;9.126;2024-03-29T18:08:07;3.90;;;3.00;;
60819;SDS011;46641;48.904;9.126;2024-03-29T18:12:57;3.53;;;3.23;;
60819;SDS011;46641;48.904;9.126;2024-03-29T18:17:47;4.50;;;3.92;;
60819;SDS011;46641;48.904;9.126;2024-03-29T18:22:38;4.47;;;4.07;;
60819;SDS011;46641;48.904;9.126;2024-03-29T18:27:28;9.33;;;8.53;;
60819;SDS011;46641;48.904;9.126;2024-03-29T18:32:18;4.53;;;4.13;;
60819;SDS011;46641;48.904;9.126;2024-03-29T18:37:08;3.85;;;3.45;;
60819;SDS011;46641;48.904;9.126;2024-03-29T18:41:59;4.97;;;4.43;;
60819;SDS011;46641;48.904;9.126;2024-03-29T18:46:49;4.43;;;4.03;;
60819;SDS011;46641;48.904;9.126;2024-03-29T18:51:39;6.03;;;4.83;;
60819;SDS011;46641;48.904;9.126;2024-03-29T18:56:30;6.90;;;6.20;;
60819;SDS011;46641;48.904;9.126;2024-03-29T19:01:21;7.00;;;4.60;;
60819;SDS011;46641;48.904;9.126;2024-03-29T19:06:11;5.23;;;4.83;;
60819;SDS011;46641;48.904;9.126;2024-03-29T19:11:06;5.73;;;5.23;;
60819;SDS011;46641;48.904;9.126;2024-03-29T19:15:56;6.07;;;5.47;;
60819;SDS011;46641;48.904;9.126;2024-03-29T19:20:46;9.63;;;7.93;;
60819;SDS011;46641;48.904;9.126;2024-03-29T19:25:36;5.10;;;4.20;;
60819;SDS011;46641;48.904;9.126;2024-03-29T19:30:27;5.10;;;4.68;;
60819;SDS011;46641;48.904;9.126;2024-03-29T19:35:17;5.20;;;4.70;;
60819;SDS011;46641;48.904;9.126;2024-03-29T19:40:07;5.23;;;4.60;;
60819;SDS011;46641;48.904;9.126;2024-03-29T19:44:58;4.20;;;3.70;;
60819;SDS011;46641;48.904;9.126;2024-03-29T19:49:48;4.07;;;3.73;;
60819;SDS011;46641;48.904;9.126;2024-03-29T19:54:38;4.67;;;3.63;;
60819;SDS011;46641;48.904;9.126;2024-03-29T19:59:30;3.77;;;3.47;;
60819;SDS011;46641;48.904;9.126;2024-03-29T20:04:20;4.40;;;3.63;;
60819;SDS011;46641;48.904;9.126;2024-03-29T20:09:10;5.47;;;4.93;;
60819;SDS011;46641;48.904;9.126;2024-03-29T20:14:00;4.53;;;4.10;;
60819;SDS011;46641;48.904;9.126;2024-03-29T20:18:51;3.90;;;3.60;;
60819;SDS011;46641;48.904;9.126;2024-03-29T20:23:49;4.20;;;3.80;;
60819;SDS011;46641;48.904;9.126;2024-03-29T20:28:39;4.83;;;4.43;;
60819;SDS011;46641;48.904;9.126;2024-03-29T20:33:30;4.43;;;4.07;;
60819;SDS011;46641;48.904;9.126;2024-03-29T20:38:20;4.77;;;4.37;;
60819;SDS011;46641;48.904;9.126;2024-03-29T20:43:11;5.13;;;4.57;;
60819;SDS011;46641;48.904;9.126;2024-03-29T20:48:01;5.05;;;4.60;;
60819;SDS011;46641;48.904;9.126;2024-03-29T20:52:53;4.80;;;4.40;;
60819;SDS011;46641;48.904;9.126;2024-03-29T20:57:45;4.93;;;4.53;;
60819;SDS011;46641;48.904;9.126;2024-03-29T21:02:35;4.75;;;4.32;;
60819;SDS011;46641;48.904;9.126;2024-03-29T21:07:44;4.47;;;4.10;;
60819;SDS011;46641;48.904;9.126;2024-03-29T21:12:36;4.97;;;4.47;;
60819;SDS011;46641;48.904;9.126;2024-03-29T21:17:27;5.07;;;4.57;;
60819;SDS011;46641;48.904;9.126;2024-03-29T21:22:18;5.43;;;4.95;;
60819;SDS011;46641;48.904;9.126;2024-03-29T21:27:08;5.03;;;4.63;;
60819;SDS011;46641;48.904;9.126;2024-03-29T21:31:59;4.70;;;4.30;;
60819;SDS011;46641;48.904;9.126;2024-03-29T21:36:49;5.65;;;5.15;;
60819;SDS011;46641;48.904;9.126;2024-03-29T21:41:39;4.93;;;4.40;;
60819;SDS011;46641;48.904;9.126;2024-03-29T21:46:29;4.60;;;3.78;;
60819;SDS011;46641;48.904;9.126;2024-03-29T21:51:20;4.90;;;4.50;;
60819;SDS011;46641;48.904;9.126;2024-03-29T21:56:11;5.10;;;4.70;;
60819;SDS011;46641;48.904;9.126;2024-03-29T22:01:01;4.77;;;4.37;;
60819;SDS011;46641;48.904;9.126;2024-03-29T22:05:51;16.27;;;10.48;;
60819;SDS011;46641;48.904;9.126;2024-03-29T22:10:43;17.37;;;11.87;;
60819;SDS011;46641;48.904;9.126;2024-03-29T22:15:33;10.02;;;7.47;;
60819;SDS011;46641;48.904;9.126;2024-03-29T22:20:23;9.57;;;7.32;;
60819;SDS011;46641;48.904;9.126;2024-03-29T22:25:15;7.57;;;6.27;;
60819;SDS011;46641;48.904;9.126;2024-03-29T22:30:06;8.07;;;5.67;;
60819;SDS011;46641;48.904;9.126;2024-03-29T22:34:57;5.30;;;4.77;;
60819;SDS011;46641;48.904;9.126;2024-03-29T22:39:48;4.90;;;4.33;;
60819;SDS011;46641;48.904;9.126;2024-03-29T22:44:38;4.97;;;4.53;;
60819;SDS011;46641;48.904;9.126;2024-03-29T22:49:29;5.30;;;4.80;;
60819;SDS011;46641;48.904;9.126;2024-03-29T22:54:19;5.60;;;4.85;;
60819;SDS011;46641;48.904;9.126;2024-03-29T22:59:11;5.80;;;5.20;;
60819;SDS011;46641;48.904;9.126;2024-03-29T23:04:02;5.80;;;5.30;;
60819;SDS011;46641;48.904;9.126;2024-03-29T23:08:52;5.03;;;4.63;;
60819;SDS011;46641;48.904;9.126;2024-03-29T23:13:42;5.30;;;4.80;;
60819;SDS011;46641;48.904;9.126;2024-03-29T23:18:32;5.93;;;5.32;;
60819;SDS011;46641;48.904;9.126;2024-03-29T23:23:23;7.05;;;6.30;;
60819;SDS011;46641;48.904;9.126;2024-03-29T23:28:13;8.17;;;6.50;;
60819;SDS011;46641;48.904;9.126;2024-03-29T23:33:05;6.47;;;5.97;;
60819;SDS011;46641;48.904;9.126;2024-03-29T23:37:55;9.07;;;8.03;;
60819;SDS011;46641;48.904;9.126;2024-03-29T23:42:46;5.93;;;5.40;;
60819;SDS011;46641;48.904;9.126;2024-03-29T23:47:36;7.47;;;6.20;;
60819;SDS011;46641;48.904;9.126;2024-03-29T23:52:26;5.95;;;5.15;;
60819;SDS011;46641;48.904;9.126;2024-03-29T23:57:16;5.87;;;5.37;;
